Time;durP1;ratioP1;P1;durP2;ratioP2;P2;SDS_P1;SDS_P2;PMS_P1;PMS_P2;Temp;Humidity;BMP_temperature;BMP_pressure;BME280_temperature;BME280_humidity;BME280_pressure;Samples;Min_cycle;Max_cycle;Signal;HPM_P1;HPM_P2
2024/04/05 00:00:13;;;;;;;;;;;;;;;;;;410644;24;998;-81
2024/04/05 00:00:23;;;;;;;;;;;;;;;;;;412503;24;1002;-81
2024/04/05 00:00:39;;;;;;;;;;;;;;;;;;412493;24;974;-81
2024/04/05 00:00:49;;;;;;;;;;;;;;;;;;412544;24;978;-81
2024/04/05 00:01:03;;;;;;;;;;;;;;;;;;414347;23;1276;-81
2024/04/05 00:01:13;;;;;;;;;;;;;;;;;;414405;23;1326;-81
2024/04/05 00:01:24;;;;;;;;;;;;;;;;;;412594;24;1010;-81
2024/04/05 00:01:34;;;;;;;;;;;;;;;;;;414527;23;926;-81
2024/04/05 00:01:44;;;;;;;;;;;;;;;;;;414348;23;1282;-81
2024/04/05 00:01:54;;;;;;;;;;;;;;;;;;414299;23;982;-81
2024/04/05 00:02:05;;;;;;;;;;;;;;;;;;412446;24;1403;-81
2024/04/05 00:02:15;;;;;;;;;;;;;;;;;;412584;24;1022;-82
2024/04/05 00:02:25;;;;;;;;;;;;;;;;;;414579;23;986;-81
2024/04/05 00:02:35;;;;;;;;;;;;;;;;;;412511;24;1177;-81
2024/04/05 00:02:46;;;;;;;;;;;;;;;;;;414561;23;959;-81
2024/04/05 00:02:56;;;;;;;;;;;;;;;;;;416266;23;1148;-81
2024/04/05 00:03:07;;;;;;;;;;;;;;;;;;412545;23;1243;-81
2024/04/05 00:03:17;;;;;;;;;;;;;;;;;;414428;23;982;-81
2024/04/05 00:03:27;;;;;;;;;;;;;;;;;;412602;24;994;-81
2024/04/05 00:03:38;;;;;;;;;;;;;;;;;;412551;24;800;-81
2024/04/05 00:03:48;;;;;;;;;;;;;;;;;;412616;24;990;-80
2024/04/05 00:04:03;;;;;;;;;;;;;;;;;;414417;23;1303;-81
2024/04/05 00:04:14;;;;;;;;;;;;;;;;;;414243;23;793;-81
2024/04/05 00:04:24;;;;;;;;;;;;;;;;;;414404;23;1037;-80
2024/04/05 00:04:34;;;;;;;;;;;;;;;;;;412656;24;1045;-81
2024/04/05 00:04:45;;;;;;;;;;;;;;;;;;410553;24;1266;-81
2024/04/05 00:04:55;;;;;;;;;;;;;;;;;;410624;24;998;-81
2024/04/05 00:05:06;;;;;;;;;;;;;;;;;;410652;24;812;-81
2024/04/05 00:05:16;;;;;;;;;;;;;;;;;;414505;23;939;-81
2024/04/05 00:05:26;;;;;;;;;;;;;;;;;;414427;23;1322;-81
2024/04/05 00:05:36;;;;;;;;;;;;;;;;;;416401;23;1147;-81
2024/04/05 00:05:47;;;;;;;;;;;;;;;;;;416462;23;895;-81
2024/04/05 00:05:57;;;;;;;;;;;;;;;;;;418377;23;994;-81
2024/04/05 00:06:07;;;;;;;;;;;;;;;;;;416379;23;1182;-81
2024/04/05 00:06:17;;;;;;;;;;;;;;;;;;416518;23;1041;-81
2024/04/05 00:06:27;;;;;;;;;;;;;;;;;;416441;23;979;-81
2024/04/05 00:06:38;;;;;;;;;;;;;;;;;;416586;23;804;-81
2024/04/05 00:06:49;;;;;;;;;;;;;;;;;;412499;24;1172;-81
2024/04/05 00:06:59;;;;;;;;;;;;;;;;;;412537;24;844;-82
2024/04/05 00:07:09;;;;;;;;;;;;;;;;;;412491;24;971;-81
2024/04/05 00:07:19;;;;;;;;;;;;;;;;;;412615;24;1054;-82
2024/04/05 00:07:29;;;;;;;;;;;;;;;;;;412316;24;1318;-81
2024/04/05 00:07:40;;;;;;;;;;;;;;;;;;412625;23;949;-82
2024/04/05 00:07:50;;;;;;;;;;;;;;;;;;414411;23;1054;-81
2024/04/05 00:08:01;;;;;;;;;;;;;;;;;;416465;23;998;-81
2024/04/05 00:08:11;;;;;;;;;;;;;;;;;;416460;23;963;-81
2024/04/05 00:08:24;;;;;;;;;;;;;;;;;;416491;23;1172;-81
2024/04/05 00:08:34;;;;;;;;;;;;;;;;;;414500;23;871;-82
2024/04/05 00:08:45;;;;;;;;;;;;;;;;;;414503;23;1350;-81
2024/04/05 00:08:55;;;;;;;;;;;;;;;;;;412146;24;1284;-81
2024/04/05 00:09:06;;;;;;;;;;;;;;;;;;412504;24;1014;-81
2024/04/05 00:09:16;;;;;;;;;;;;;;;;;;412547;24;1010;-81
2024/04/05 00:09:27;;;;;;;;;;;;;;;;;;414610;23;895;-81
2024/04/05 00:09:39;;;;;;;;;;;;;;;;;;416344;23;978;-82
2024/04/05 00:09:50;;;;;;;;;;;;;;;;;;416480;23;919;-81
2024/04/05 00:10:00;;;;;;;;;;;;;;;;;;416453;23;966;-81
2024/04/05 00:10:10;;;;;;;;;;;;;;;;;;416366;23;1150;-81
2024/04/05 00:10:20;;;;;;;;;;;;;;;;;;416217;23;978;-80
2024/04/05 00:10:31;;;;;;;;;;;;;;;;;;416538;23;962;-81
2024/04/05 00:10:41;;;;;;;;;;;;;;;;;;416395;23;997;-82
2024/04/05 00:10:52;;;;;;;;;;;;;;;;;;416501;23;799;-81
2024/04/05 00:11:02;;;;;;;;;;;;;;;;;;416424;23;990;-81
2024/04/05 00:11:12;;;;;;;;;;;;;;;;;;416343;23;1284;-81
2024/04/05 00:11:23;;;;;;;;;;;;;;;;;;416514;23;1001;-81
2024/04/05 00:11:33;;;;;;;;;;;;;;;;;;416543;23;982;-81
2024/04/05 00:11:43;;;;;;;;;;;;;;;;;;414458;23;796;-81
2024/04/05 00:11:53;;;;;;;;;;;;;;;;;;414534;23;1042;-81
2024/04/05 00:12:04;;;;;;;;;;;;;;;;;;412567;24;978;-81
2024/04/05 00:12:14;;;;;;;;;;;;;;;;;;414492;23;987;-82
2024/04/05 00:12:24;;;;;;;;;;;;;;;;;;414213;23;1171;-81
2024/04/05 00:12:34;;;;;;;;;;;;;;;;;;416549;23;1009;-81
2024/04/05 00:12:46;;;;;;;;;;;;;;;;;;420416;23;974;-81
2024/04/05 00:12:57;;;;;;;;;;;;;;;;;;420531;23;931;-81
2024/04/05 00:13:07;;;;;;;;;;;;;;;;;;420463;23;1029;-81
2024/04/05 00:13:18;;;;;;;;;;;;;;;;;;420392;23;981;-81
2024/04/05 00:13:28;;;;;;;;;;;;;;;;;;414372;23;1281;-81
2024/04/05 00:13:38;;;;;;;;;;;;;;;;;;414541;23;1877;-81
2024/04/05 00:13:49;;;;;;;;;;;;;;;;;;414418;23;1295;-81
2024/04/05 00:13:59;;;;;;;;;;;;;;;;;;414409;23;1158;-81
2024/04/05 00:14:10;;;;;;;;;;;;;;;;;;414490;23;910;-81
2024/04/05 00:14:20;;;;;;;;;;;;;;;;;;414364;23;1243;-81
2024/04/05 00:14:30;;;;;;;;;;;;;;;;;;418444;23;958;-81
2024/04/05 00:14:40;;;;;;;;;;;;;;;;;;418506;23;947;-81
2024/04/05 00:14:50;;;;;;;;;;;;;;;;;;416332;23;1002;-81
2024/04/05 00:15:01;;;;;;;;;;;;;;;;;;414478;23;1152;-81
2024/04/05 00:15:11;;;;;;;;;;;;;;;;;;412535;23;891;-81
2024/04/05 00:15:22;;;;;;;;;;;;;;;;;;416500;23;919;-81
2024/04/05 00:15:37;;;;;;;;;;;;;;;;;;416351;23;975;-81
2024/04/05 00:15:48;;;;;;;;;;;;;;;;;;412450;24;1382;-81
2024/04/05 00:16:01;;;;;;;;;;;;;;;;;;416393;23;824;-81
2024/04/05 00:16:11;;;;;;;;;;;;;;;;;;414314;23;1224;-81
2024/04/05 00:16:21;;;;;;;;;;;;;;;;;;414479;23;1330;-81
2024/04/05 00:16:31;;;;;;;;;;;;;;;;;;414421;23;851;-81
2024/04/05 00:16:41;;;;;;;;;;;;;;;;;;414518;23;1010;-82
2024/04/05 00:16:52;;;;;;;;;;;;;;;;;;414457;23;962;-81
2024/04/05 00:17:02;;;;;;;;;;;;;;;;;;414393;23;1065;-81
2024/04/05 00:17:13;;;;;;;;;;;;;;;;;;414368;23;1320;-81
2024/04/05 00:17:23;;;;;;;;;;;;;;;;;;416409;23;985;-81
2024/04/05 00:17:34;;;;;;;;;;;;;;;;;;416214;23;1284;-81
2024/04/05 00:17:44;;;;;;;;;;;;;;;;;;416554;23;756;-82
2024/04/05 00:17:54;;;;;;;;;;;;;;;;;;416261;23;1172;-81
2024/04/05 00:18:05;;;;;;;;;;;;;;;;;;414492;23;1207;-81
2024/04/05 00:18:17;;;;;;;;;;;;;;;;;;414392;23;1270;-81
2024/04/05 00:18:33;;;;;;;;;;;;;;;;;;414529;23;990;-81
2024/04/05 00:18:43;;;;;;;;;;;;;;;;;;410613;24;1287;-81
2024/04/05 00:18:56;;;;;;;;;;;;;;;;;;410578;24;1003;-80
2024/04/05 00:19:07;;;;;;;;;;;;;;;;;;410620;24;975;-82
2024/04/05 00:19:17;;;;;;;;;;;;;;;;;;412576;24;1085;-81
2024/04/05 00:19:27;;;;;;;;;;;;;;;;;;414423;23;1170;-82
2024/04/05 00:19:37;;;;;;;;;;;;;;;;;;414577;23;959;-81
2024/04/05 00:19:47;;;;;;;;;;;;;;;;;;416412;23;970;-81
2024/04/05 00:19:58;;;;;;;;;;;;;;;;;;418391;23;1238;-81
2024/04/05 00:20:08;;;;;;;;;;;;;;;;;;418324;23;910;-81
2024/04/05 00:20:19;;;;;;;;;;;;;;;;;;416519;23;998;-81
2024/04/05 00:20:29;;;;;;;;;;;;;;;;;;416295;23;1024;-80
2024/04/05 00:20:39;;;;;;;;;;;;;;;;;;414379;23;1192;-81
2024/04/05 00:20:49;;;;;;;;;;;;;;;;;;414373;23;1313;-81
2024/04/05 00:21:00;;;;;;;;;;;;;;;;;;414472;23;1277;-81
2024/04/05 00:21:10;;;;;;;;;;;;;;;;;;414188;23;1246;-80
2024/04/05 00:21:21;;;;;;;;;;;;;;;;;;414481;23;1021;-81
2024/04/05 00:21:31;;;;;;;;;;;;;;;;;;414477;23;1038;-81
2024/04/05 00:21:41;;;;;;;;;;;;;;;;;;414557;23;1204;-81
2024/04/05 00:21:52;;;;;;;;;;;;;;;;;;414414;23;1225;-81
2024/04/05 00:22:02;;;;;;;;;;;;;;;;;;412311;24;1387;-81
2024/04/05 00:22:12;;;;;;;;;;;;;;;;;;412467;24;1235;-82
2024/04/05 00:22:22;;;;;;;;;;;;;;;;;;412622;24;1014;-81
2024/04/05 00:22:33;;;;;;;;;;;;;;;;;;414368;23;1427;-81
2024/04/05 00:22:43;;;;;;;;;;;;;;;;;;414424;23;1239;-81
2024/04/05 00:22:53;;;;;;;;;;;;;;;;;;414026;23;1255;-81
2024/04/05 00:23:03;;;;;;;;;;;;;;;;;;412599;24;1253;-81
2024/04/05 00:23:14;;;;;;;;;;;;;;;;;;414453;23;995;-81
2024/04/05 00:23:25;;;;;;;;;;;;;;;;;;414499;23;943;-82
2024/04/05 00:23:35;;;;;;;;;;;;;;;;;;414341;23;1196;-81
2024/04/05 00:23:45;;;;;;;;;;;;;;;;;;414432;23;931;-81
2024/04/05 00:23:56;;;;;;;;;;;;;;;;;;414465;23;1018;-81
2024/04/05 00:24:06;;;;;;;;;;;;;;;;;;416418;23;1300;-81
2024/04/05 00:24:16;;;;;;;;;;;;;;;;;;416478;23;824;-81
2024/04/05 00:24:27;;;;;;;;;;;;;;;;;;414393;23;1323;-82
2024/04/05 00:24:37;;;;;;;;;;;;;;;;;;410647;24;899;-81
2024/04/05 00:24:48;;;;;;;;;;;;;;;;;;412504;24;1213;-82
2024/04/05 00:24:58;;;;;;;;;;;;;;;;;;412472;24;1257;-82
2024/04/05 00:25:09;;;;;;;;;;;;;;;;;;416476;23;1229;-81
2024/04/05 00:25:19;;;;;;;;;;;;;;;;;;416263;23;903;-80
2024/04/05 00:25:29;;;;;;;;;;;;;;;;;;416454;23;1169;-81
2024/04/05 00:25:40;;;;;;;;;;;;;;;;;;418391;23;891;-81
2024/04/05 00:26:00;;;;;;;;;;;;;;;;;;416448;23;1322;-81
2024/04/05 00:26:10;;;;;;;;;;;;;;;;;;414356;23;1265;-81
2024/04/05 00:26:20;;;;;;;;;;;;;;;;;;414396;23;1268;-81
2024/04/05 00:26:30;;;;;;;;;;;;;;;;;;414556;23;962;-81
2024/04/05 00:26:40;;;;;;;;;;;;;;;;;;412613;24;860;-81
2024/04/05 00:26:51;;;;;;;;;;;;;;;;;;414419;23;1252;-82
2024/04/05 00:27:01;;;;;;;;;;;;;;;;;;412437;24;1282;-81
2024/04/05 00:27:11;;;;;;;;;;;;;;;;;;412642;24;836;-81
2024/04/05 00:27:21;;;;;;;;;;;;;;;;;;412546;24;963;-81
2024/04/05 00:27:32;;;;;;;;;;;;;;;;;;414494;23;804;-81
2024/04/05 00:27:42;;;;;;;;;;;;;;;;;;416405;23;1166;-81
2024/04/05 00:27:54;;;;;;;;;;;;;;;;;;414334;23;1281;-81
2024/04/05 00:28:04;;;;;;;;;;;;;;;;;;414376;23;959;-81
2024/04/05 00:28:15;;;;;;;;;;;;;;;;;;414290;23;1308;-81
2024/04/05 00:28:25;;;;;;;;;;;;;;;;;;412481;24;1395;-81
2024/04/05 00:28:36;;;;;;;;;;;;;;;;;;410515;24;1171;-81
2024/04/05 00:28:46;;;;;;;;;;;;;;;;;;412597;24;812;-81
2024/04/05 00:28:56;;;;;;;;;;;;;;;;;;414448;23;970;-81
2024/04/05 00:29:07;;;;;;;;;;;;;;;;;;414529;23;958;-81
2024/04/05 00:29:17;;;;;;;;;;;;;;;;;;414506;23;1147;-81
2024/04/05 00:29:27;;;;;;;;;;;;;;;;;;414412;23;982;-81
2024/04/05 00:29:37;;;;;;;;;;;;;;;;;;410615;23;1269;-81
2024/04/05 00:29:48;;;;;;;;;;;;;;;;;;410499;24;915;-81
2024/04/05 00:30:00;;;;;;;;;;;;;;;;;;410342;24;1459;-81
2024/04/05 00:30:10;;;;;;;;;;;;;;;;;;410513;24;1010;-81
2024/04/05 00:30:21;;;;;;;;;;;;;;;;;;410627;24;765;-81
2024/04/05 00:30:31;;;;;;;;;;;;;;;;;;412450;24;963;-81
2024/04/05 00:30:41;;;;;;;;;;;;;;;;;;414510;23;923;-81
2024/04/05 00:30:51;;;;;;;;;;;;;;;;;;414462;23;816;-81
2024/04/05 00:31:02;;;;;;;;;;;;;;;;;;414482;23;1186;-82
2024/04/05 00:31:12;;;;;;;;;;;;;;;;;;414557;23;1018;-81
2024/04/05 00:31:22;;;;;;;;;;;;;;;;;;414370;23;773;-81
2024/04/05 00:31:34;;;;;;;;;;;;;;;;;;416457;23;1045;-81
2024/04/05 00:31:44;;;;;;;;;;;;;;;;;;416439;23;823;-80
2024/04/05 00:31:54;;;;;;;;;;;;;;;;;;414063;23;1339;-81
2024/04/05 00:32:05;;;;;;;;;;;;;;;;;;414563;23;930;-81
2024/04/05 00:32:15;;;;;;;;;;;;;;;;;;412366;24;1002;-81
2024/04/05 00:32:26;;;;;;;;;;;;;;;;;;412625;24;899;-81
2024/04/05 00:32:36;;;;;;;;;;;;;;;;;;414545;23;1002;-81
2024/04/05 00:32:46;;;;;;;;;;;;;;;;;;412573;24;1342;-80
2024/04/05 00:32:56;;;;;;;;;;;;;;;;;;412573;24;979;-81
2024/04/05 00:33:07;;;;;;;;;;;;;;;;;;412455;24;1284;-81
2024/04/05 00:33:17;;;;;;;;;;;;;;;;;;412312;24;1337;-81
2024/04/05 00:33:27;;;;;;;;;;;;;;;;;;412246;24;904;-81
2024/04/05 00:33:38;;;;;;;;;;;;;;;;;;412395;24;1921;-81
2024/04/05 00:33:48;;;;;;;;;;;;;;;;;;412013;24;923;-81
2024/04/05 00:33:58;;;;;;;;;;;;;;;;;;412520;24;935;-81
2024/04/05 00:34:08;;;;;;;;;;;;;;;;;;412524;24;999;-81
2024/04/05 00:34:19;;;;;;;;;;;;;;;;;;412542;24;1003;-82
2024/04/05 00:34:29;;;;;;;;;;;;;;;;;;410576;24;1182;-81
2024/04/05 00:34:39;;;;;;;;;;;;;;;;;;412500;24;1192;-81
2024/04/05 00:34:49;;;;;;;;;;;;;;;;;;412545;24;1043;-81
2024/04/05 00:34:59;;;;;;;;;;;;;;;;;;412406;24;1026;-81
2024/04/05 00:35:10;;;;;;;;;;;;;;;;;;412399;24;1076;-81
2024/04/05 00:35:20;;;;;;;;;;;;;;;;;;412625;24;1017;-81
2024/04/05 00:35:30;;;;;;;;;;;;;;;;;;414360;23;1308;-81
2024/04/05 00:35:56;;;;;;;;;;;;;;;;;;412569;24;789;-81
2024/04/05 00:36:06;;;;;;;;;;;;;;;;;;414519;23;926;-81
2024/04/05 00:36:16;;;;;;;;;;;;;;;;;;414483;23;1156;-81
2024/04/05 00:36:26;;;;;;;;;;;;;;;;;;412524;24;1255;-81
2024/04/05 00:36:36;;;;;;;;;;;;;;;;;;414455;23;895;-81
2024/04/05 00:36:47;;;;;;;;;;;;;;;;;;416547;23;1029;-81
2024/04/05 00:36:57;;;;;;;;;;;;;;;;;;416493;23;788;-81
2024/04/05 00:37:08;;;;;;;;;;;;;;;;;;414387;23;1201;-81
2024/04/05 00:37:18;;;;;;;;;;;;;;;;;;414423;23;1186;-81
2024/04/05 00:37:28;;;;;;;;;;;;;;;;;;414434;23;959;-81
2024/04/05 00:37:38;;;;;;;;;;;;;;;;;;413513;23;1411;-81
2024/04/05 00:37:49;;;;;;;;;;;;;;;;;;416437;23;1425;-81
2024/04/05 00:37:59;;;;;;;;;;;;;;;;;;414497;23;1237;-81
2024/04/05 00:38:09;;;;;;;;;;;;;;;;;;416563;23;929;-81
2024/04/05 00:38:20;;;;;;;;;;;;;;;;;;418292;23;1009;-81
2024/04/05 00:38:30;;;;;;;;;;;;;;;;;;414495;23;800;-81
2024/04/05 00:38:40;;;;;;;;;;;;;;;;;;416379;23;883;-81
2024/04/05 00:38:52;;;;;;;;;;;;;;;;;;416474;23;966;-81
2024/04/05 00:39:02;;;;;;;;;;;;;;;;;;412593;24;994;-81
2024/04/05 00:39:12;;;;;;;;;;;;;;;;;;414418;23;1326;-81
2024/04/05 00:39:22;;;;;;;;;;;;;;;;;;414500;23;978;-81
2024/04/05 00:39:33;;;;;;;;;;;;;;;;;;418388;23;1276;-81
2024/04/05 00:39:43;;;;;;;;;;;;;;;;;;414440;23;1400;-82
2024/04/05 00:39:53;;;;;;;;;;;;;;;;;;414461;23;1037;-81
2024/04/05 00:40:03;;;;;;;;;;;;;;;;;;418385;23;931;-81
2024/04/05 00:40:14;;;;;;;;;;;;;;;;;;416541;23;1060;-81
2024/04/05 00:40:26;;;;;;;;;;;;;;;;;;412478;24;1170;-82
2024/04/05 00:40:36;;;;;;;;;;;;;;;;;;416544;23;954;-81
2024/04/05 00:40:46;;;;;;;;;;;;;;;;;;414551;23;1022;-81
2024/04/05 00:40:56;;;;;;;;;;;;;;;;;;412517;24;1352;-81
2024/04/05 00:41:07;;;;;;;;;;;;;;;;;;412539;24;907;-81
2024/04/05 00:41:17;;;;;;;;;;;;;;;;;;414447;23;1262;-81
2024/04/05 00:41:27;;;;;;;;;;;;;;;;;;414545;23;804;-81
2024/04/05 00:41:37;;;;;;;;;;;;;;;;;;412644;24;979;-81
2024/04/05 00:41:47;;;;;;;;;;;;;;;;;;412575;24;923;-81
2024/04/05 00:41:58;;;;;;;;;;;;;;;;;;414471;23;1230;-82
2024/04/05 00:42:09;;;;;;;;;;;;;;;;;;412408;24;1321;-81
2024/04/05 00:42:19;;;;;;;;;;;;;;;;;;414546;23;1002;-81
2024/04/05 00:42:29;;;;;;;;;;;;;;;;;;410562;24;1285;-81
2024/04/05 00:42:39;;;;;;;;;;;;;;;;;;412581;24;1025;-81
2024/04/05 00:42:49;;;;;;;;;;;;;;;;;;414390;23;899;-81
2024/04/05 00:43:03;;;;;;;;;;;;;;;;;;414519;23;1001;-81
2024/04/05 00:43:13;;;;;;;;;;;;;;;;;;414408;23;1152;-81
2024/04/05 00:43:23;;;;;;;;;;;;;;;;;;416397;23;858;-81
2024/04/05 00:43:35;;;;;;;;;;;;;;;;;;418383;23;966;-81
2024/04/05 00:43:45;;;;;;;;;;;;;;;;;;418416;23;1001;-81
2024/04/05 00:43:55;;;;;;;;;;;;;;;;;;418288;23;785;-81
2024/04/05 00:44:05;;;;;;;;;;;;;;;;;;418302;23;967;-81
2024/04/05 00:44:15;;;;;;;;;;;;;;;;;;414346;23;1275;-81
2024/04/05 00:44:26;;;;;;;;;;;;;;;;;;414605;23;785;-81
2024/04/05 00:44:36;;;;;;;;;;;;;;;;;;416368;23;1187;-81
2024/04/05 00:44:46;;;;;;;;;;;;;;;;;;416442;23;867;-81
2024/04/05 00:44:56;;;;;;;;;;;;;;;;;;416283;23;1237;-81
2024/04/05 00:45:07;;;;;;;;;;;;;;;;;;416389;23;994;-81
2024/04/05 00:45:17;;;;;;;;;;;;;;;;;;416301;23;1277;-81
2024/04/05 00:45:27;;;;;;;;;;;;;;;;;;412588;24;990;-80
2024/04/05 00:45:42;;;;;;;;;;;;;;;;;;412420;24;987;-81
2024/04/05 00:45:52;;;;;;;;;;;;;;;;;;412511;24;1194;-81
2024/04/05 00:46:03;;;;;;;;;;;;;;;;;;414339;23;916;-81
2024/04/05 00:46:13;;;;;;;;;;;;;;;;;;412613;24;840;-81
2024/04/05 00:46:24;;;;;;;;;;;;;;;;;;414304;23;1045;-81
2024/04/05 00:46:34;;;;;;;;;;;;;;;;;;418409;23;1180;-81
2024/04/05 00:46:45;;;;;;;;;;;;;;;;;;418458;23;966;-81
2024/04/05 00:46:55;;;;;;;;;;;;;;;;;;414493;23;1002;-81
2024/04/05 00:47:05;;;;;;;;;;;;;;;;;;414507;23;943;-82
2024/04/05 00:47:16;;;;;;;;;;;;;;;;;;414612;23;974;-82
2024/04/05 00:47:26;;;;;;;;;;;;;;;;;;418267;23;1296;-81
2024/04/05 00:47:36;;;;;;;;;;;;;;;;;;414388;23;1265;-81
2024/04/05 00:47:46;;;;;;;;;;;;;;;;;;414418;23;891;-81
2024/04/05 00:47:58;;;;;;;;;;;;;;;;;;416311;23;1262;-81
2024/04/05 00:48:08;;;;;;;;;;;;;;;;;;414390;23;995;-81
2024/04/05 00:48:19;;;;;;;;;;;;;;;;;;410537;24;1267;-81
2024/04/05 00:48:30;;;;;;;;;;;;;;;;;;410400;24;990;-81
2024/04/05 00:48:41;;;;;;;;;;;;;;;;;;410509;24;1430;-81
2024/04/05 00:48:51;;;;;;;;;;;;;;;;;;414392;23;1174;-81
2024/04/05 00:49:01;;;;;;;;;;;;;;;;;;416323;23;1227;-81
2024/04/05 00:49:12;;;;;;;;;;;;;;;;;;416108;23;1181;-81
2024/04/05 00:49:23;;;;;;;;;;;;;;;;;;416431;23;1264;-81
2024/04/05 00:49:33;;;;;;;;;;;;;;;;;;414350;23;943;-81
2024/04/05 00:49:43;;;;;;;;;;;;;;;;;;414509;23;1260;-81
2024/04/05 00:49:54;;;;;;;;;;;;;;;;;;414591;23;784;-81
2024/04/05 00:50:05;;;;;;;;;;;;;;;;;;414537;23;973;-81
2024/04/05 00:50:16;;;;;;;;;;;;;;;;;;414618;23;820;-81
2024/04/05 00:50:30;;;;;;;;;;;;;;;;;;414533;23;1019;-81
2024/04/05 00:50:40;;;;;;;;;;;;;;;;;;414494;23;1014;-81
2024/04/05 00:50:52;;;;;;;;;;;;;;;;;;412452;24;1277;-81
2024/04/05 00:51:05;;;;;;;;;;;;;;;;;;412490;24;950;-81
2024/04/05 00:51:16;;;;;;;;;;;;;;;;;;412402;24;979;-81
2024/04/05 00:51:27;;;;;;;;;;;;;;;;;;414301;23;991;-81
2024/04/05 00:51:37;;;;;;;;;;;;;;;;;;414343;23;1146;-81
2024/04/05 00:51:48;;;;;;;;;;;;;;;;;;416394;23;1218;-81
2024/04/05 00:51:59;;;;;;;;;;;;;;;;;;416312;23;985;-81
2024/04/05 00:52:10;;;;;;;;;;;;;;;;;;414552;23;792;-81
2024/04/05 00:52:20;;;;;;;;;;;;;;;;;;416415;23;935;-81
2024/04/05 00:52:31;;;;;;;;;;;;;;;;;;416417;23;966;-81
2024/04/05 00:52:41;;;;;;;;;;;;;;;;;;412493;23;1185;-81
2024/04/05 00:52:52;;;;;;;;;;;;;;;;;;414498;23;962;-81
2024/04/05 00:53:02;;;;;;;;;;;;;;;;;;412447;24;1196;-81
2024/04/05 00:53:16;;;;;;;;;;;;;;;;;;412506;24;1285;-81
2024/04/05 00:53:31;;;;;;;;;;;;;;;;;;412589;24;990;-81
2024/04/05 00:53:42;;;;;;;;;;;;;;;;;;410552;24;1882;-81
2024/04/05 00:53:52;;;;;;;;;;;;;;;;;;410645;24;1046;-82
2024/04/05 00:54:04;;;;;;;;;;;;;;;;;;410561;23;1382;-81
2024/04/05 00:54:14;;;;;;;;;;;;;;;;;;410610;24;912;-81
2024/04/05 00:54:25;;;;;;;;;;;;;;;;;;414193;23;1150;-81
2024/04/05 00:54:35;;;;;;;;;;;;;;;;;;416386;23;1162;-81
2024/04/05 00:54:46;;;;;;;;;;;;;;;;;;414400;23;1200;-81
2024/04/05 00:54:56;;;;;;;;;;;;;;;;;;412572;23;1209;-81
2024/04/05 00:55:07;;;;;;;;;;;;;;;;;;416425;23;1304;-81
2024/04/05 00:55:17;;;;;;;;;;;;;;;;;;416443;23;1006;-81
2024/04/05 00:55:29;;;;;;;;;;;;;;;;;;414386;23;1324;-81
2024/04/05 00:55:42;;;;;;;;;;;;;;;;;;412511;24;1150;-81
2024/04/05 00:55:56;;;;;;;;;;;;;;;;;;414403;23;1377;-81
2024/04/05 00:56:07;;;;;;;;;;;;;;;;;;414490;23;911;-81
2024/04/05 00:56:17;;;;;;;;;;;;;;;;;;410634;24;797;-81
2024/04/05 00:56:29;;;;;;;;;;;;;;;;;;414423;23;962;-81
2024/04/05 00:56:39;;;;;;;;;;;;;;;;;;414457;23;1147;-82
2024/04/05 00:56:50;;;;;;;;;;;;;;;;;;414228;23;1296;-81
2024/04/05 00:57:00;;;;;;;;;;;;;;;;;;414512;23;1029;-81
2024/04/05 00:57:12;;;;;;;;;;;;;;;;;;414441;23;1379;-81
2024/04/05 00:57:22;;;;;;;;;;;;;;;;;;416433;23;1025;-81
2024/04/05 00:57:32;;;;;;;;;;;;;;;;;;414624;23;745;-81
2024/04/05 00:57:42;;;;;;;;;;;;;;;;;;418367;23;990;-81
2024/04/05 00:58:03;;;;;;;;;;;;;;;;;;418457;23;844;-81
2024/04/05 00:58:15;;;;;;;;;;;;;;;;;;420436;23;1034;-81
2024/04/05 00:58:26;;;;;;;;;;;;;;;;;;420348;23;1025;-81
2024/04/05 00:58:37;;;;;;;;;;;;;;;;;;420296;23;1146;-83
2024/04/05 00:58:47;;;;;;;;;;;;;;;;;;420500;23;835;-83
2024/04/05 00:58:57;;;;;;;;;;;;;;;;;;416424;23;1061;-84
2024/04/05 00:59:09;;;;;;;;;;;;;;;;;;412608;24;967;-81
2024/04/05 00:59:20;;;;;;;;;;;;;;;;;;412550;24;1034;-80
2024/04/05 00:59:32;;;;;;;;;;;;;;;;;;412349;24;1014;-81
2024/04/05 00:59:43;;;;;;;;;;;;;;;;;;412521;23;946;-81
2024/04/05 00:59:53;;;;;;;;;;;;;;;;;;414423;23;1296;-81
2024/04/05 01:00:04;;;;;;;;;;;;;;;;;;416436;23;955;-81
2024/04/05 01:00:15;;;;;;;;;;;;;;;;;;416418;23;899;-81
2024/04/05 01:00:29;;;;;;;;;;;;;;;;;;416350;23;1261;-81
2024/04/05 01:00:39;;;;;;;;;;;;;;;;;;412446;24;1449;-81
2024/04/05 01:00:50;;;;;;;;;;;;;;;;;;414307;23;978;-81
2024/04/05 01:01:00;;;;;;;;;;;;;;;;;;414481;23;1037;-81
2024/04/05 01:01:11;;;;;;;;;;;;;;;;;;414460;23;1247;-81
2024/04/05 01:01:21;;;;;;;;;;;;;;;;;;416358;23;1299;-81
2024/04/05 01:01:31;;;;;;;;;;;;;;;;;;416398;23;1189;-81
2024/04/05 01:01:42;;;;;;;;;;;;;;;;;;414416;23;1057;-81
2024/04/05 01:01:52;;;;;;;;;;;;;;;;;;414576;23;812;-81
2024/04/05 01:02:02;;;;;;;;;;;;;;;;;;416397;23;1029;-81
2024/04/05 01:02:13;;;;;;;;;;;;;;;;;;418525;23;851;-81
2024/04/05 01:02:23;;;;;;;;;;;;;;;;;;420385;23;776;-81
2024/04/05 01:02:33;;;;;;;;;;;;;;;;;;416290;23;1338;-81
2024/04/05 01:02:45;;;;;;;;;;;;;;;;;;416437;23;974;-81
2024/04/05 01:02:55;;;;;;;;;;;;;;;;;;418461;23;974;-81
2024/04/05 01:03:06;;;;;;;;;;;;;;;;;;416310;23;1322;-81
2024/04/05 01:03:16;;;;;;;;;;;;;;;;;;414332;23;1162;-81
2024/04/05 01:03:27;;;;;;;;;;;;;;;;;;414416;23;1177;-81
2024/04/05 01:03:38;;;;;;;;;;;;;;;;;;412560;24;1174;-81
2024/04/05 01:03:48;;;;;;;;;;;;;;;;;;414389;23;998;-81
2024/04/05 01:03:58;;;;;;;;;;;;;;;;;;416442;23;959;-81
2024/04/05 01:04:11;;;;;;;;;;;;;;;;;;418322;23;1310;-81
2024/04/05 01:04:22;;;;;;;;;;;;;;;;;;414477;23;939;-81
2024/04/05 01:04:33;;;;;;;;;;;;;;;;;;414325;23;1273;-81
2024/04/05 01:04:43;;;;;;;;;;;;;;;;;;414395;23;1222;-81
2024/04/05 01:04:53;;;;;;;;;;;;;;;;;;412412;24;1261;-81
2024/04/05 01:05:04;;;;;;;;;;;;;;;;;;412645;24;979;-81
2024/04/05 01:05:14;;;;;;;;;;;;;;;;;;412487;24;947;-81
2024/04/05 01:05:24;;;;;;;;;;;;;;;;;;414470;23;875;-82
2024/04/05 01:05:35;;;;;;;;;;;;;;;;;;416514;23;974;-81
2024/04/05 01:05:49;;;;;;;;;;;;;;;;;;418267;23;1200;-81
2024/04/05 01:05:59;;;;;;;;;;;;;;;;;;416503;23;954;-80
2024/04/05 01:06:09;;;;;;;;;;;;;;;;;;418498;23;941;-81
2024/04/05 01:06:20;;;;;;;;;;;;;;;;;;418448;23;1025;-81
2024/04/05 01:06:31;;;;;;;;;;;;;;;;;;416384;23;1287;-81
2024/04/05 01:06:42;;;;;;;;;;;;;;;;;;412586;24;967;-81
2024/04/05 01:06:52;;;;;;;;;;;;;;;;;;416489;23;1162;-81
2024/04/05 01:07:02;;;;;;;;;;;;;;;;;;416396;23;1178;-81
2024/04/05 01:07:13;;;;;;;;;;;;;;;;;;418337;23;1255;-81
2024/04/05 01:07:23;;;;;;;;;;;;;;;;;;416198;23;1379;-81
2024/04/05 01:07:33;;;;;;;;;;;;;;;;;;416500;23;904;-81
2024/04/05 01:07:43;;;;;;;;;;;;;;;;;;414495;23;1173;-81
2024/04/05 01:07:55;;;;;;;;;;;;;;;;;;414550;23;792;-81
2024/04/05 01:08:07;;;;;;;;;;;;;;;;;;414480;23;923;-82
2024/04/05 01:08:17;;;;;;;;;;;;;;;;;;418337;23;1385;-81
2024/04/05 01:08:28;;;;;;;;;;;;;;;;;;416419;23;1255;-81
2024/04/05 01:08:38;;;;;;;;;;;;;;;;;;414441;23;1168;-81
2024/04/05 01:08:49;;;;;;;;;;;;;;;;;;416353;23;1250;-81
2024/04/05 01:08:59;;;;;;;;;;;;;;;;;;416366;23;955;-81
2024/04/05 01:09:11;;;;;;;;;;;;;;;;;;416339;23;1170;-82
2024/04/05 01:09:21;;;;;;;;;;;;;;;;;;416402;23;852;-81
2024/04/05 01:09:32;;;;;;;;;;;;;;;;;;416490;23;1009;-81
2024/04/05 01:09:42;;;;;;;;;;;;;;;;;;414438;23;982;-81
2024/04/05 01:09:52;;;;;;;;;;;;;;;;;;416345;23;1174;-81
2024/04/05 01:10:02;;;;;;;;;;;;;;;;;;414416;23;1150;-81
2024/04/05 01:10:13;;;;;;;;;;;;;;;;;;414426;23;765;-81
2024/04/05 01:10:23;;;;;;;;;;;;;;;;;;412543;24;998;-81
2024/04/05 01:10:35;;;;;;;;;;;;;;;;;;412691;24;793;-81
2024/04/05 01:10:45;;;;;;;;;;;;;;;;;;412377;24;1270;-82
2024/04/05 01:10:56;;;;;;;;;;;;;;;;;;410584;24;1187;-81
2024/04/05 01:11:07;;;;;;;;;;;;;;;;;;414557;23;891;-81
2024/04/05 01:11:17;;;;;;;;;;;;;;;;;;418331;23;1521;-81
2024/04/05 01:11:27;;;;;;;;;;;;;;;;;;414409;23;1271;-81
2024/04/05 01:11:37;;;;;;;;;;;;;;;;;;414301;23;1249;-81
2024/04/05 01:11:54;;;;;;;;;;;;;;;;;;414491;23;1251;-82
2024/04/05 01:12:05;;;;;;;;;;;;;;;;;;414421;23;1505;-81
2024/04/05 01:12:15;;;;;;;;;;;;;;;;;;412211;24;1245;-81
2024/04/05 01:12:25;;;;;;;;;;;;;;;;;;416459;23;1186;-81
2024/04/05 01:12:35;;;;;;;;;;;;;;;;;;416304;23;1154;-81
2024/04/05 01:12:56;;;;;;;;;;;;;;;;;;416439;23;954;-81
2024/04/05 01:13:08;;;;;;;;;;;;;;;;;;414508;23;1334;-81
2024/04/05 01:13:18;;;;;;;;;;;;;;;;;;416299;23;1441;-81
2024/04/05 01:13:28;;;;;;;;;;;;;;;;;;416438;23;958;-81
2024/04/05 01:13:38;;;;;;;;;;;;;;;;;;416343;23;946;-81
2024/04/05 01:13:48;;;;;;;;;;;;;;;;;;416334;23;1894;-81
2024/04/05 01:13:59;;;;;;;;;;;;;;;;;;412538;24;816;-81
2024/04/05 01:14:09;;;;;;;;;;;;;;;;;;416438;23;1061;-81
2024/04/05 01:14:19;;;;;;;;;;;;;;;;;;414412;23;1041;-81
2024/04/05 01:14:29;;;;;;;;;;;;;;;;;;414440;23;1302;-81
2024/04/05 01:14:40;;;;;;;;;;;;;;;;;;420277;23;1270;-81
2024/04/05 01:14:50;;;;;;;;;;;;;;;;;;416300;23;1170;-81
2024/04/05 01:15:01;;;;;;;;;;;;;;;;;;414476;23;832;-81
2024/04/05 01:15:11;;;;;;;;;;;;;;;;;;412508;24;1326;-81
2024/04/05 01:15:21;;;;;;;;;;;;;;;;;;410558;24;971;-81
2024/04/05 01:15:32;;;;;;;;;;;;;;;;;;410458;24;980;-81
2024/04/05 01:15:43;;;;;;;;;;;;;;;;;;410581;24;959;-81
2024/04/05 01:15:53;;;;;;;;;;;;;;;;;;410682;24;1002;-82
2024/04/05 01:16:06;;;;;;;;;;;;;;;;;;412537;24;998;-81
2024/04/05 01:16:16;;;;;;;;;;;;;;;;;;414469;23;982;-80
2024/04/05 01:16:26;;;;;;;;;;;;;;;;;;416477;23;994;-81
2024/04/05 01:16:36;;;;;;;;;;;;;;;;;;416367;23;1069;-81